Time;durP1;ratioP1;P1;durP2;ratioP2;P2;SDS_P1;SDS_P2;PMS_P1;PMS_P2;Temp;Humidity;BMP_temperature;BMP_pressure;BME280_temperature;BME280_humidity;BME280_pressure;Samples;Min_cycle;Max_cycle;Signal;HPM_P1;HPM_P2
2023/05/30 00:01:41;;;;;;;0.10;0.10;;;;;;;15.49;53.11;97964.47;5023363;28;20061;-70
2023/05/30 00:04:08;;;;;;;0.10;0.10;;;;;;;15.43;53.35;97976.94;5031382;28;20048;-70
2023/05/30 00:06:36;;;;;;;0.10;0.10;;;;;;;15.39;53.26;97975.72;5027876;28;20455;-70
2023/05/30 00:09:04;;;;;;;0.10;0.10;;;;;;;15.34;53.39;97973.69;5019660;28;20038;-71
2023/05/30 00:11:32;;;;;;;0.15;0.15;;;;;;;15.33;53.14;97966.66;5028995;28;20037;-70
2023/05/30 00:14:00;;;;;;;0.10;0.10;;;;;;;15.28;53.27;97966.47;5032055;28;20124;-70
2023/05/30 00:16:31;;;;;;;0.10;0.10;;;;;;;15.21;53.47;97972.91;5027964;28;20084;-70
2023/05/30 00:19:00;;;;;;;0.10;0.10;;;;;;;15.15;53.53;97968.41;5031000;28;20049;-72
2023/05/30 00:21:28;;;;;;;0.10;0.10;;;;;;;15.20;53.16;97984.72;5032026;28;20033;-70
2023/05/30 00:23:56;;;;;;;0.10;0.10;;;;;;;15.18;53.20;97978.72;5031642;28;20528;-70
2023/05/30 00:26:26;;;;;;;0.10;0.10;;;;;;;15.16;53.14;97978.94;5025819;28;20041;-70
2023/05/30 00:28:54;;;;;;;0.10;0.10;;;;;;;15.15;52.77;97981.84;5030968;28;20100;-70
2023/05/30 00:31:21;;;;;;;0.17;0.17;;;;;;;15.12;52.96;97982.28;5032078;28;20040;-70
2023/05/30 00:33:50;;;;;;;0.10;0.10;;;;;;;15.09;53.02;97980.81;5032059;28;20100;-70
2023/05/30 00:36:19;;;;;;;0.20;0.20;;;;;;;15.07;52.73;97983.72;5031550;28;20052;-70
2023/05/30 00:38:47;;;;;;;0.10;0.10;;;;;;;14.96;53.16;97989.75;5030084;28;20048;-70
2023/05/30 00:41:15;;;;;;;0.20;0.20;;;;;;;14.87;53.24;97980.28;5028448;28;20045;-71
2023/05/30 00:43:42;;;;;;;0.10;0.10;;;;;;;14.79;53.50;97977.03;5025698;28;20037;-70
2023/05/30 00:46:11;;;;;;;0.10;0.10;;;;;;;14.81;53.25;97981.16;5029501;28;20045;-70
2023/05/30 00:48:40;;;;;;;0.08;0.08;;;;;;;14.72;53.54;97981.59;5030581;28;20520;-70
2023/05/30 00:51:11;;;;;;;0.10;0.10;;;;;;;14.72;53.67;97986.97;5029632;28;20045;-70
2023/05/30 00:53:41;;;;;;;0.22;0.22;;;;;;;14.78;53.15;97986.94;5030145;28;20095;-70
2023/05/30 00:56:09;;;;;;;0.10;0.10;;;;;;;14.66;53.47;97985.94;5013286;28;20053;-70
2023/05/30 00:58:38;;;;;;;0.10;0.10;;;;;;;14.64;53.72;97986.16;5030726;28;20128;-70
2023/05/30 01:01:06;;;;;;;0.17;0.17;;;;;;;14.70;53.20;97989.88;5028964;28;20527;-70
2023/05/30 01:03:34;;;;;;;0.10;0.10;;;;;;;14.70;53.71;97984.50;5025551;28;20139;-70
2023/05/30 01:06:03;;;;;;;0.13;0.13;;;;;;;14.69;53.52;97980.16;5030274;28;20045;-70
2023/05/30 01:08:32;;;;;;;0.10;0.10;;;;;;;14.61;53.32;97981.22;5027200;28;20065;-70
2023/05/30 01:11:04;;;;;;;0.17;0.17;;;;;;;14.57;53.44;97976.47;5029591;28;20068;-70
2023/05/30 01:13:38;;;;;;;0.13;0.13;;;;;;;14.52;53.17;97981.66;5031952;28;20033;-69
2023/05/30 01:16:09;;;;;;;0.10;0.10;;;;;;;14.57;53.12;97987.19;5029662;28;20406;-70
2023/05/30 01:18:40;;;;;;;0.10;0.10;;;;;;;14.51;53.04;97983.50;5029129;28;20509;-70
2023/05/30 01:21:10;;;;;;;0.10;0.10;;;;;;;14.49;53.25;97987.44;5028896;28;20049;-70
2023/05/30 01:23:50;;;;;;;0.10;0.10;;;;;;;14.43;53.30;97982.91;5031986;28;20049;-70
2023/05/30 01:26:32;;;;;;;0.17;0.17;;;;;;;14.43;53.27;97986.41;5030861;28;20049;-70
2023/05/30 01:29:03;;;;;;;0.15;0.15;;;;;;;14.41;53.32;97979.59;5030133;28;20128;-70
2023/05/30 01:31:30;;;;;;;0.10;0.10;;;;;;;14.36;53.62;97977.50;5032177;28;20432;-70
2023/05/30 01:34:00;;;;;;;0.10;0.10;;;;;;;14.37;53.49;97975.66;5013919;28;20041;-70
2023/05/30 01:36:29;;;;;;;0.10;0.10;;;;;;;14.36;53.45;97976.69;5031901;28;20507;-70
2023/05/30 01:39:00;;;;;;;0.17;0.17;;;;;;;14.05;54.49;97974.63;5029692;28;20115;-70
2023/05/30 01:41:32;;;;;;;0.10;0.10;;;;;;;14.16;54.20;97972.16;5018179;28;20547;-70
2023/05/30 01:44:02;;;;;;;;;;;;;;;14.23;54.30;97967.59;5024919;28;20124;-71
2023/05/30 01:46:32;;;;;;;0.20;0.20;;;;;;;14.19;55.84;97963.69;5027193;28;19921;-70
2023/05/30 01:49:09;;;;;;;0.10;0.10;;;;;;;14.17;55.66;97971.13;5028054;28;20045;-70
2023/05/30 01:51:40;;;;;;;0.10;0.10;;;;;;;14.19;56.07;97973.59;5028955;28;20049;-70
2023/05/30 01:54:09;;;;;;;0.20;0.20;;;;;;;14.17;56.37;97968.44;5029177;28;20046;-71
2023/05/30 01:56:37;;;;;;;0.10;0.10;;;;;;;14.18;56.21;97972.78;5028796;28;20041;-71
2023/05/30 01:59:08;;;;;;;0.20;0.20;;;;;;;14.09;57.03;97982.09;5032009;28;20073;-71
2023/05/30 02:01:37;;;;;;;0.10;0.10;;;;;;;14.05;56.17;97986.19;5028071;28;20084;-71
2023/05/30 02:04:04;;;;;;;0.10;0.10;;;;;;;14.06;56.70;97985.19;5034204;28;20046;-71
2023/05/30 02:06:32;;;;;;;0.10;0.10;;;;;;;14.07;55.88;97989.50;5020896;28;20048;-71
2023/05/30 02:09:00;;;;;;;0.10;0.10;;;;;;;13.99;56.33;97992.41;5026224;28;20053;-71
2023/05/30 02:11:28;;;;;;;0.10;0.10;;;;;;;13.95;56.79;97989.31;5031513;28;20041;-71
2023/05/30 02:13:57;;;;;;;0.15;0.15;;;;;;;13.99;56.28;97995.09;5034330;28;20091;-71
2023/05/30 02:16:26;;;;;;;0.20;0.20;;;;;;;13.83;55.92;97982.91;5030145;28;20049;-71
2023/05/30 02:18:54;;;;;;;0.20;0.20;;;;;;;13.85;55.49;97991.56;5032693;28;20045;-71
2023/05/30 02:21:21;;;;;;;0.20;0.20;;;;;;;13.81;54.06;97989.50;5036203;28;20048;-71
2023/05/30 02:23:49;;;;;;;0.10;0.10;;;;;;;13.79;53.99;97992.41;5036006;28;20119;-71
2023/05/30 02:26:17;;;;;;;0.20;0.20;;;;;;;13.77;53.59;97986.41;5040903;28;20046;-71
2023/05/30 02:28:44;;;;;;;0.10;0.10;;;;;;;13.70;53.28;97993.63;5041549;28;20080;-71
2023/05/30 02:31:12;;;;;;;0.10;0.10;;;;;;;13.73;53.12;97993.22;5033930;28;20049;-71
2023/05/30 02:33:41;;;;;;;0.20;0.20;;;;;;;13.71;52.77;98002.47;5032859;28;20059;-71
2023/05/30 02:36:09;;;;;;;0.20;0.20;;;;;;;13.66;52.98;97995.06;5033573;28;20052;-71
2023/05/30 02:38:37;;;;;;;0.15;0.15;;;;;;;13.66;52.48;98002.28;5018349;28;20053;-71
2023/05/30 02:41:04;;;;;;;0.13;0.13;;;;;;;13.58;52.74;97992.59;5032340;28;20080;-71
2023/05/30 02:43:32;;;;;;;0.13;0.13;;;;;;;13.51;52.67;98000.59;5027556;28;20136;-71
2023/05/30 02:46:04;;;;;;;0.20;0.20;;;;;;;13.47;52.75;97996.69;5026238;28;20466;-71
2023/05/30 02:48:32;;;;;;;0.10;0.10;;;;;;;13.49;52.73;98002.69;5031039;28;20408;-71
2023/05/30 02:51:01;;;;;;;0.10;0.10;;;;;;;13.47;52.71;97999.38;5032383;28;20053;-71
2023/05/30 02:53:29;;;;;;;0.10;0.10;;;;;;;13.45;52.66;98005.94;5029160;28;20088;-71
2023/05/30 02:55:58;;;;;;;0.20;0.20;;;;;;;13.36;52.54;97999.94;5028647;28;20048;-71
2023/05/30 02:58:53;;;;;;;0.15;0.15;;;;;;;13.36;52.45;98001.81;5028940;28;20135;-71
2023/05/30 03:01:39;;;;;;;0.10;0.10;;;;;;;13.29;52.85;98001.78;5026767;28;20064;-71
2023/05/30 03:04:07;;;;;;;0.20;0.20;;;;;;;13.23;52.85;98002.59;5031576;28;20042;-71
2023/05/30 03:06:49;;;;;;;0.08;0.08;;;;;;;13.27;52.79;98003.84;5015267;28;20444;-71
2023/05/30 03:09:19;;;;;;;0.20;0.20;;;;;;;13.15;53.29;98010.81;5013421;28;20045;-71
2023/05/30 03:11:50;;;;;;;0.10;0.10;;;;;;;13.22;55.22;98000.94;5030692;28;20095;-71
2023/05/30 03:14:17;;;;;;;0.10;0.10;;;;;;;13.16;56.63;98013.31;5031608;28;20061;-71
2023/05/30 03:16:46;;;;;;;0.20;0.20;;;;;;;13.07;57.26;98005.59;5031800;28;20042;-71
2023/05/30 03:19:16;;;;;;;0.10;0.10;;;;;;;13.02;57.53;98008.88;5031253;28;20088;-71
2023/05/30 03:21:45;;;;;;;0.20;0.20;;;;;;;12.97;58.05;98007.81;5029528;28;20095;-71
2023/05/30 03:24:15;;;;;;;0.20;0.20;;;;;;;12.98;58.05;98009.47;5028869;28;20095;-70
2023/05/30 03:26:44;;;;;;;0.17;0.17;;;;;;;12.97;57.87;98013.19;5026472;28;20053;-71
2023/05/30 03:29:14;;;;;;;0.30;0.30;;;;;;;12.92;58.02;98010.25;5021580;28;20052;-71
2023/05/30 03:31:43;;;;;;;0.10;0.10;;;;;;;12.88;58.24;98012.50;5028989;28;20037;-71
2023/05/30 03:34:11;;;;;;;0.17;0.17;;;;;;;12.66;58.69;98011.78;5030691;28;20136;-71
2023/05/30 03:36:40;;;;;;;0.20;0.20;;;;;;;12.69;58.23;98024.78;5031755;28;20175;-71
2023/05/30 03:39:10;;;;;;;0.20;0.20;;;;;;;12.61;58.94;98011.53;5028935;28;20049;-70
2023/05/30 03:41:39;;;;;;;0.20;0.20;;;;;;;12.68;58.81;98007.03;5029171;28;20045;-70
2023/05/30 03:44:06;;;;;;;0.10;0.10;;;;;;;12.72;58.79;98024.38;5031338;28;20080;-70
2023/05/30 03:46:34;;;;;;;0.10;0.10;;;;;;;12.75;58.42;98021.31;5031294;28;20128;-71
2023/05/30 03:49:02;;;;;;;0.10;0.10;;;;;;;12.65;58.31;98022.69;5031298;28;20064;-71
2023/05/30 03:51:30;;;;;;;0.13;0.13;;;;;;;12.72;58.62;98032.41;5027993;28;20050;-71
2023/05/30 03:53:58;;;;;;;0.15;0.15;;;;;;;12.64;58.37;98021.88;5022867;28;20060;-71
2023/05/30 03:56:27;;;;;;;0.13;0.13;;;;;;;12.73;58.11;98030.56;5022527;28;20065;-71
2023/05/30 03:58:54;;;;;;;0.17;0.17;;;;;;;12.69;58.12;98031.97;5028062;28;20073;-71
2023/05/30 04:01:23;;;;;;;0.10;0.10;;;;;;;12.78;57.13;98039.66;5028455;28;20043;-71
2023/05/30 04:03:53;;;;;;;0.20;0.20;;;;;;;12.80;57.25;98034.94;5026061;28;20049;-71
2023/05/30 04:06:24;;;;;;;0.10;0.10;;;;;;;12.81;57.26;98025.88;5017264;28;20089;-71
2023/05/30 04:08:52;;;;;;;0.10;0.10;;;;;;;12.78;57.35;98030.78;5030223;28;20136;-71
2023/05/30 04:11:21;;;;;;;0.13;0.13;;;;;;;12.74;57.79;98030.38;5029892;28;20041;-70
2023/05/30 04:13:50;;;;;;;0.13;0.13;;;;;;;12.85;57.28;98037.03;5031283;28;20610;-71
2023/05/30 04:16:18;;;;;;;0.10;0.10;;;;;;;12.83;57.63;98033.72;5034637;28;20114;-70
2023/05/30 04:18:47;;;;;;;0.10;0.10;;;;;;;12.87;57.74;98033.09;5028142;28;20460;-71
2023/05/30 04:21:15;;;;;;;0.10;0.10;;;;;;;12.96;57.60;98039.16;5031317;28;20412;-71
2023/05/30 04:23:44;;;;;;;0.15;0.15;;;;;;;12.95;57.72;98042.84;5046672;28;20046;-71
2023/05/30 04:26:11;;;;;;;0.10;0.10;;;;;;;13.01;57.37;98042.03;5027085;28;20083;-71
2023/05/30 04:28:41;;;;;;;0.20;0.20;;;;;;;12.99;57.50;98038.72;5025251;28;20045;-71
2023/05/30 04:31:10;;;;;;;0.20;0.20;;;;;;;12.98;57.77;98036.28;5028406;28;20045;-71
2023/05/30 04:33:51;;;;;;;0.15;0.15;;;;;;;12.89;57.41;98043.63;5029820;28;20038;-71
2023/05/30 04:36:19;;;;;;;0.20;0.20;;;;;;;12.82;58.09;98042.78;5029609;28;20451;-71
2023/05/30 04:38:49;;;;;;;0.20;0.20;;;;;;;12.80;57.99;98042.97;5037715;28;20064;-71
2023/05/30 04:41:19;;;;;;;0.10;0.10;;;;;;;12.77;58.01;98046.03;5036121;28;20125;-71
2023/05/30 04:43:52;;;;;;;0.17;0.17;;;;;;;12.71;58.44;98044.16;5025573;28;20045;-71
2023/05/30 04:46:22;;;;;;;0.10;0.10;;;;;;;12.80;58.30;98052.84;5024198;28;20048;-71
2023/05/30 04:48:51;;;;;;;0.20;0.20;;;;;;;12.82;58.39;98048.97;5040249;28;20135;-71
2023/05/30 04:51:20;;;;;;;0.20;0.20;;;;;;;12.85;58.29;98048.56;5039672;28;20405;-71
2023/05/30 04:53:47;;;;;;;0.20;0.20;;;;;;;12.81;58.28;98049.97;5029070;28;20493;-71
2023/05/30 04:56:15;;;;;;;0.10;0.10;;;;;;;12.59;59.05;98044.91;5029976;28;20132;-71
2023/05/30 04:58:44;;;;;;;0.20;0.20;;;;;;;12.80;58.36;98050.19;5029955;28;20080;-71
2023/05/30 05:01:13;;;;;;;0.10;0.10;;;;;;;12.84;58.76;98054.13;5029615;28;20049;-71
2023/05/30 05:03:43;;;;;;;0.10;0.10;;;;;;;12.92;58.17;98055.81;5026818;28;20096;-72
2023/05/30 05:06:11;;;;;;;0.22;0.22;;;;;;;13.06;57.78;98061.06;5029479;28;20060;-71
2023/05/30 05:08:39;;;;;;;0.20;0.20;;;;;;;13.05;57.65;98058.56;5030685;28;20049;-70
2023/05/30 05:11:09;;;;;;;0.10;0.10;;;;;;;12.99;57.66;98060.16;5029487;28;20394;-71
2023/05/30 05:13:36;;;;;;;0.10;0.10;;;;;;;13.06;57.58;98065.59;5029520;28;20124;-70
2023/05/30 05:16:06;;;;;;;0.10;0.10;;;;;;;13.15;56.76;98067.09;5028424;28;20050;-69
2023/05/30 05:18:33;;;;;;;0.13;0.13;;;;;;;13.07;55.85;98064.56;5035686;28;20045;-70
2023/05/30 05:21:02;;;;;;;0.20;0.20;;;;;;;13.13;55.08;98071.78;5031142;28;20050;-69
2023/05/30 05:23:30;;;;;;;0.10;0.10;;;;;;;13.19;53.99;98066.47;5031122;28;20082;-70
2023/05/30 05:26:00;;;;;;;0.10;0.10;;;;;;;13.23;53.06;98070.44;5030576;28;20049;-69
2023/05/30 05:28:27;;;;;;;0.10;0.10;;;;;;;12.88;53.35;98080.31;5030805;28;20041;-69
2023/05/30 05:30:55;;;;;;;0.10;0.10;;;;;;;12.91;53.54;98073.75;5031163;28;20087;-70
2023/05/30 05:33:24;;;;;;;0.15;0.15;;;;;;;13.03;53.87;98079.38;5026533;28;20065;-70
2023/05/30 05:35:51;;;;;;;0.10;0.10;;;;;;;12.97;53.00;98081.00;5032755;28;20060;-69
2023/05/30 05:38:20;;;;;;;0.10;0.10;;;;;;;13.12;52.65;98081.69;5034251;28;20416;-70
2023/05/30 05:40:48;;;;;;;0.28;0.28;;;;;;;13.12;52.60;98080.84;5034201;28;20412;-69
2023/05/30 05:43:15;;;;;;;0.20;0.20;;;;;;;13.23;52.36;98085.69;5034847;28;20049;-69
2023/05/30 05:45:43;;;;;;;0.20;0.20;;;;;;;13.07;53.54;98083.31;5034632;28;20066;-70
2023/05/30 05:48:11;;;;;;;0.10;0.10;;;;;;;13.30;52.85;98094.56;5034620;28;20431;-70
2023/05/30 05:50:38;;;;;;;0.15;0.15;;;;;;;13.51;52.21;98090.94;5034807;28;20041;-70
2023/05/30 05:53:06;;;;;;;0.10;0.10;;;;;;;13.42;52.01;98084.94;5034519;28;20513;-69
2023/05/30 05:55:35;;;;;;;0.17;0.17;;;;;;;13.58;51.64;98092.66;5027404;28;20052;-69
2023/05/30 05:58:02;;;;;;;0.10;0.10;;;;;;;13.67;51.46;98087.94;5031538;28;20064;-69
2023/05/30 06:00:30;;;;;;;0.20;0.20;;;;;;;13.72;51.03;98085.44;5034779;28;20041;-69
2023/05/30 06:02:58;;;;;;;0.17;0.17;;;;;;;13.64;51.14;98085.63;5034664;28;20037;-70
2023/05/30 06:05:26;;;;;;;0.20;0.20;;;;;;;13.67;51.02;98085.25;5029279;28;20052;-70
2023/05/30 06:07:57;;;;;;;0.13;0.13;;;;;;;13.60;51.01;98093.25;5034164;28;20046;-70
2023/05/30 06:10:25;;;;;;;0.15;0.15;;;;;;;13.75;50.80;98092.28;5028415;28;20068;-69
2023/05/30 06:12:55;;;;;;;0.17;0.17;;;;;;;13.84;50.59;98093.75;5026578;28;20544;-69
2023/05/30 06:15:22;;;;;;;0.10;0.10;;;;;;;13.94;50.22;98099.53;5030250;28;20106;-70
2023/05/30 06:17:50;;;;;;;0.10;0.10;;;;;;;13.99;49.92;98102.44;5029958;28;20060;-70
2023/05/30 06:20:18;;;;;;;0.20;0.20;;;;;;;14.08;49.55;98108.44;5032242;28;20047;-69
2023/05/30 06:22:45;;;;;;;0.10;0.10;;;;;;;14.06;49.56;98107.81;5034275;28;20062;-69
2023/05/30 06:25:13;;;;;;;0.13;0.13;;;;;;;14.02;49.68;98107.41;5033388;28;20033;-70
2023/05/30 06:27:40;;;;;;;0.20;0.20;;;;;;;14.01;49.79;98104.94;5033997;28;20063;-70
2023/05/30 06:30:10;;;;;;;0.10;0.10;;;;;;;13.90;49.98;98104.50;5033724;28;20060;-70
2023/05/30 06:32:38;;;;;;;0.10;0.10;;;;;;;14.10;49.76;98101.84;5033931;28;20045;-69
2023/05/30 06:35:07;;;;;;;0.10;0.10;;;;;;;13.98;50.21;98108.84;5033296;28;20041;-70
2023/05/30 06:37:35;;;;;;;0.10;0.10;;;;;;;14.12;50.18;98115.88;5034191;28;20041;-69
2023/05/30 06:40:02;;;;;;;0.10;0.10;;;;;;;14.19;50.20;98114.06;5033517;28;20068;-69
2023/05/30 06:42:33;;;;;;;0.10;0.10;;;;;;;14.27;50.19;98118.38;5028487;28;20050;-69
2023/05/30 06:45:01;;;;;;;0.15;0.15;;;;;;;14.28;50.39;98112.81;5034912;28;20124;-69
2023/05/30 06:47:29;;;;;;;0.20;0.20;;;;;;;14.33;50.76;98115.69;5034382;28;20509;-69
2023/05/30 06:49:57;;;;;;;0.10;0.10;;;;;;;14.35;50.74;98120.88;5026505;28;20492;-69
2023/05/30 06:52:25;;;;;;;0.05;0.05;;;;;;;14.32;50.93;98124.81;5029899;28;20057;-69
2023/05/30 06:54:52;;;;;;;0.10;0.10;;;;;;;14.43;50.78;98123.38;5032477;28;20500;-69
2023/05/30 06:57:20;;;;;;;0.20;0.20;;;;;;;14.57;50.56;98129.59;5034695;28;20042;-69
2023/05/30 06:59:48;;;;;;;0.10;0.10;;;;;;;14.46;50.55;98119.47;5033319;28;20192;-69
2023/05/30 07:02:17;;;;;;;0.08;0.08;;;;;;;14.61;50.60;98126.28;5037256;28;20053;-69
2023/05/30 07:04:46;;;;;;;0.10;0.10;;;;;;;14.72;50.27;98115.97;5039445;28;20073;-70
2023/05/30 07:07:14;;;;;;;0.10;0.10;;;;;;;14.82;50.63;98125.25;5031122;28;20046;-70
2023/05/30 07:09:41;;;;;;;0.10;0.10;;;;;;;14.96;50.39;98121.50;5033770;28;20045;-70
2023/05/30 07:12:09;;;;;;;0.20;0.20;;;;;;;15.14;50.35;98120.03;5026051;28;20059;-70
2023/05/30 07:14:37;;;;;;;0.10;0.10;;;;;;;15.19;49.97;98114.81;5033232;28;20033;-70
2023/05/30 07:17:07;;;;;;;0.10;0.10;;;;;;;15.32;49.73;98114.78;5032260;28;20520;-70
2023/05/30 07:19:34;;;;;;;0.30;0.30;;;;;;;15.16;50.11;98113.38;5030785;28;20505;-71
2023/05/30 07:22:04;;;;;;;0.20;0.20;;;;;;;15.26;50.23;98116.44;5031384;28;20050;-70
2023/05/30 07:24:31;;;;;;;0.10;0.10;;;;;;;15.43;49.75;98111.44;5026159;28;20133;-70
2023/05/30 07:26:59;;;;;;;0.10;0.10;;;;;;;15.80;49.27;98128.69;5032478;28;20053;-70
2023/05/30 07:29:27;;;;;;;0.17;0.10;;;;;;;15.97;48.27;98120.97;5031637;28;20042;-70
2023/05/30 07:31:54;;;;;;;0.10;0.10;;;;;;;16.20;46.69;98121.22;5032755;28;20045;-70
2023/05/30 07:34:22;;;;;;;0.20;0.20;;;;;;;16.43;46.39;98116.09;5032308;28;20037;-70
2023/05/30 07:36:50;;;;;;;0.10;0.10;;;;;;;16.53;46.07;98115.59;5030078;28;20412;-70
2023/05/30 07:39:19;;;;;;;0.10;0.10;;;;;;;16.66;46.52;98118.22;5032297;28;20037;-72
2023/05/30 07:41:46;;;;;;;0.10;0.10;;;;;;;16.75;46.41;98110.66;5032606;28;20046;-71
2023/05/30 07:44:14;;;;;;;0.10;0.10;;;;;;;17.00;45.86;98116.03;5031971;28;20052;-71
2023/05/30 07:46:42;;;;;;;0.10;0.10;;;;;;;17.13;44.36;98111.31;5026693;28;20067;-71
2023/05/30 07:49:09;;;;;;;0.20;0.20;;;;;;;17.33;44.02;98123.81;5030821;28;20381;-70
2023/05/30 07:51:37;;;;;;;0.08;0.08;;;;;;;17.35;43.97;98109.00;5032641;28;20048;-70
2023/05/30 07:54:05;;;;;;;0.20;0.20;;;;;;;17.57;43.24;98103.97;5029724;28;20037;-71
2023/05/30 07:56:34;;;;;;;0.10;0.10;;;;;;;17.65;42.93;98113.69;5026046;28;20579;-71
2023/05/30 07:59:02;;;;;;;0.20;0.20;;;;;;;17.77;42.71;98112.69;5032960;28;20045;-70
2023/05/30 08:01:31;;;;;;;0.10;0.10;;;;;;;18.02;42.33;98107.16;5033179;28;20509;-70
2023/05/30 08:03:58;;;;;;;0.10;0.10;;;;;;;18.19;41.32;98110.03;5024579;28;20042;-70
2023/05/30 08:06:26;;;;;;;0.10;0.10;;;;;;;18.38;41.29;98114.31;5017698;28;20045;-70
2023/05/30 08:08:54;;;;;;;0.10;0.10;;;;;;;18.47;40.62;98118.34;5030245;28;20047;-70
2023/05/30 08:11:22;;;;;;;0.20;0.20;;;;;;;18.55;40.83;98118.00;5034185;28;20041;-70
2023/05/30 08:13:52;;;;;;;0.20;0.20;;;;;;;18.60;40.88;98115.44;5033845;28;20092;-71
2023/05/30 08:16:20;;;;;;;0.10;0.10;;;;;;;18.72;40.64;98120.88;5033990;28;20121;-69
2023/05/30 08:18:48;;;;;;;0.20;0.20;;;;;;;18.76;40.55;98124.75;5032053;28;20120;-69
2023/05/30 08:21:15;;;;;;;0.20;0.20;;;;;;;18.88;40.82;98117.50;5026503;28;20045;-69
2023/05/30 08:23:45;;;;;;;0.20;0.20;;;;;;;18.94;40.58;98123.81;5033526;28;20125;-70
2023/05/30 08:26:13;;;;;;;0.10;0.10;;;;;;;18.79;40.87;98121.56;5031864;28;20040;-69
2023/05/30 08:28:42;;;;;;;0.10;0.10;;;;;;;19.12;39.85;98125.59;5026528;28;20044;-70
2023/05/30 08:31:10;;;;;;;0.10;0.10;;;;;;;19.11;39.62;98123.94;5034373;28;20045;-70
2023/05/30 08:33:38;;;;;;;0.10;0.10;;;;;;;19.21;39.70;98121.47;5033499;28;20052;-70
2023/05/30 08:36:06;;;;;;;0.10;0.10;;;;;;;19.54;39.60;98120.84;5032793;28;20045;-70
2023/05/30 08:38:33;;;;;;;0.15;0.15;;;;;;;19.58;38.22;98116.63;5024936;28;20045;-70
2023/05/30 08:41:01;;;;;;;0.10;0.10;;;;;;;19.60;39.00;98119.91;5030872;28;20053;-72
2023/05/30 08:43:29;;;;;;;0.10;0.10;;;;;;;19.76;38.99;98119.97;5033614;28;20134;-71
2023/05/30 08:45:57;;;;;;;0.00;0.00;;;;;;;19.96;38.39;98113.31;5050210;22;20089;-73
2023/05/30 08:48:29;;;;;;;0.10;0.10;;;;;;;19.97;38.10;98117.66;5003367;28;20397;-73
2023/05/30 08:50:57;;;;;;;0.10;0.10;;;;;;;19.97;37.11;98115.78;5031238;28;20049;-73
2023/05/30 08:53:28;;;;;;;0.00;0.00;;;;;;;19.80;37.85;98112.19;5027932;28;20052;-73
2023/05/30 08:55:59;;;;;;;0.10;0.10;;;;;;;20.00;37.89;98112.59;5031121;28;20064;-73
2023/05/30 08:58:30;;;;;;;0.10;0.10;;;;;;;20.10;37.90;98114.66;5027605;28;20037;-73
2023/05/30 09:00:58;;;;;;;0.10;0.10;;;;;;;20.09;37.71;98116.56;5030940;28;20541;-73
2023/05/30 09:03:30;;;;;;;0.10;0.10;;;;;;;20.22;37.40;98123.56;5031622;28;20053;-73
2023/05/30 09:05:58;;;;;;;0.10;0.10;;;;;;;20.23;36.74;98124.41;5013221;28;20053;-73
2023/05/30 09:08:28;;;;;;;0.08;0.08;;;;;;;20.37;35.98;98123.88;5026646;28;20103;-73
2023/05/30 09:10:56;;;;;;;0.00;0.00;;;;;;;20.42;35.71;98120.44;5024399;28;20130;-73
2023/05/30 09:13:24;;;;;;;0.10;0.10;;;;;;;20.49;34.61;98132.75;5024876;28;20037;-73
2023/05/30 09:15:52;;;;;;;0.10;0.10;;;;;;;20.44;35.21;98132.69;5028340;28;20049;-73
2023/05/30 09:18:19;;;;;;;0.05;0.05;;;;;;;20.63;32.81;98136.00;5031173;28;20080;-73
2023/05/30 09:20:48;;;;;;;0.10;0.10;;;;;;;20.55;32.71;98125.56;5027464;28;20050;-73
2023/05/30 09:23:16;;;;;;;0.10;0.10;;;;;;;20.47;33.71;98134.88;5021701;28;20046;-73
2023/05/30 09:25:45;;;;;;;0.10;0.10;;;;;;;20.75;33.64;98131.31;5028455;28;20034;-73
2023/05/30 09:28:13;;;;;;;0.10;0.10;;;;;;;20.84;31.48;98137.16;5020138;28;20187;-73
2023/05/30 09:30:54;;;;;;;0.10;0.10;;;;;;;20.56;32.60;98129.88;5028872;28;20033;-73
2023/05/30 09:33:42;;;;;;;0.08;0.08;;;;;;;20.97;32.32;98138.72;5022069;28;20461;-73
2023/05/30 09:36:15;;;;;;;0.00;0.00;;;;;;;20.90;32.02;98144.28;5030802;28;20048;-73
2023/05/30 09:38:52;;;;;;;0.08;0.08;;;;;;;21.07;32.35;98133.44;5013644;28;20136;-73
2023/05/30 09:41:23;;;;;;;0.10;0.10;;;;;;;21.21;30.36;98138.28;5025751;28;20455;-73
2023/05/30 09:43:53;;;;;;;0.10;0.10;;;;;;;20.85;30.69;98141.50;5030131;28;20145;-73
2023/05/30 09:46:22;;;;;;;0.10;0.10;;;;;;;21.17;32.12;98133.59;5022553;28;20064;-74
2023/05/30 09:48:49;;;;;;;0.10;0.10;;;;;;;21.18;32.35;98146.91;5022115;28;20567;-73
2023/05/30 09:51:20;;;;;;;0.10;0.10;;;;;;;21.21;30.09;98137.47;5015873;28;20504;-73
2023/05/30 09:53:56;;;;;;;0.10;0.10;;;;;;;21.45;30.08;98136.19;5026482;28;20497;-74
2023/05/30 09:56:35;;;;;;;0.10;0.10;;;;;;;21.48;30.56;98134.88;5023798;28;20523;-73
2023/05/30 09:59:06;;;;;;;0.10;0.10;;;;;;;21.62;30.75;98130.69;5021870;28;20140;-74
2023/05/30 10:01:38;;;;;;;0.08;0.08;;;;;;;21.59;30.31;98133.94;5031085;28;20068;-74
2023/05/30 10:04:12;;;;;;;;;;;;;;;21.59;29.88;98139.38;5027930;28;20040;-74
2023/05/30 10:06:43;;;;;;;0.10;0.10;;;;;;;21.64;29.61;98144.84;5025073;28;20287;-74
2023/05/30 10:09:11;;;;;;;0.10;0.10;;;;;;;21.54;26.81;98142.00;5029967;28;20049;-71
2023/05/30 10:11:39;;;;;;;0.10;0.10;;;;;;;21.74;27.64;98150.41;5027812;28;20038;-74
2023/05/30 10:14:08;;;;;;;0.10;0.10;;;;;;;21.92;27.37;98139.22;5030146;28;20041;-74
2023/05/30 10:16:41;;;;;;;0.10;0.10;;;;;;;22.07;26.76;98149.50;5005024;28;20041;-73
2023/05/30 10:19:13;;;;;;;0.10;0.10;;;;;;;21.96;27.59;98144.97;5013739;28;20052;-73
2023/05/30 10:21:44;;;;;;;0.00;0.00;;;;;;;21.61;28.25;98143.47;5014159;28;20499;-73
2023/05/30 10:24:14;;;;;;;0.10;0.10;;;;;;;21.77;28.49;98143.66;5033416;28;20037;-73
2023/05/30 10:26:48;;;;;;;0.10;0.10;;;;;;;21.87;27.53;98139.19;5016801;28;20048;-73
2023/05/30 10:29:17;;;;;;;0.10;0.10;;;;;;;22.14;26.64;98139.22;5023004;28;20049;-73
2023/05/30 10:31:45;;;;;;;0.08;0.08;;;;;;;22.31;27.63;98139.16;5035133;28;20065;-73
2023/05/30 10:34:14;;;;;;;0.10;0.10;;;;;;;22.30;27.27;98138.34;5034090;28;20052;-73
2023/05/30 10:36:44;;;;;;;0.10;0.10;;;;;;;22.15;27.29;98138.16;5030073;28;20480;-73
2023/05/30 10:39:18;;;;;;;0.10;0.10;;;;;;;22.18;27.25;98132.22;5033884;28;20094;-73
2023/05/30 10:41:50;;;;;;;0.00;0.00;;;;;;;22.48;22.84;98133.59;5011721;28;20096;-73
2023/05/30 10:44:33;;;;;;;0.10;0.10;;;;;;;22.71;23.35;98136.00;5026870;28;20120;-73
2023/05/30 10:47:10;;;;;;;0.10;0.10;;;;;;;22.83;24.58;98144.03;5016052;28;20045;-73
2023/05/30 10:49:39;;;;;;;0.10;0.10;;;;;;;22.65;26.31;98131.56;5029174;28;20072;-73
2023/05/30 10:52:11;;;;;;;0.10;0.10;;;;;;;22.74;25.74;98135.44;5027943;28;20041;-73
2023/05/30 10:54:42;;;;;;;0.10;0.10;;;;;;;22.61;25.86;98136.72;5028046;28;20041;-73
2023/05/30 10:57:28;;;;;;;0.00;0.00;;;;;;;22.65;25.12;98135.09;5033342;28;20060;-73
2023/05/30 10:59:56;;;;;;;0.00;0.00;;;;;;;22.42;24.24;98137.34;5033757;28;20049;-73
2023/05/30 11:02:34;;;;;;;0.10;0.10;;;;;;;22.58;24.65;98120.91;5025877;28;20056;-74
2023/05/30 11:05:07;;;;;;;0.00;0.00;;;;;;;21.99;26.34;98119.22;5032805;28;20049;-72
2023/05/30 11:07:37;;;;;;;0.10;0.10;;;;;;;22.36;26.06;98122.03;5019589;28;20041;-72
2023/05/30 11:10:06;;;;;;;0.10;0.10;;;;;;;22.17;26.04;98118.88;5030872;28;20049;-72
2023/05/30 11:12:44;;;;;;;0.10;0.10;;;;;;;22.53;25.82;98120.06;5033421;28;20037;-72
2023/05/30 11:15:15;;;;;;;0.10;0.10;;;;;;;22.72;25.93;98109.59;5033000;28;20053;-72
2023/05/30 11:17:42;;;;;;;0.00;0.00;;;;;;;22.83;25.44;98114.91;5027874;28;20034;-72
2023/05/30 11:20:14;;;;;;;0.10;0.10;;;;;;;22.65;25.26;98109.78;5033384;28;20458;-73
2023/05/30 11:23:16;;;;;;;0.00;0.00;;;;;;;22.51;26.33;98097.72;5025447;28;20046;-73
2023/05/30 11:25:46;;;;;;;0.10;0.10;;;;;;;22.71;26.68;98106.06;5029444;28;20052;-73
2023/05/30 11:28:17;;;;;;;0.00;0.00;;;;;;;23.01;26.10;98110.94;5014964;28;20067;-73
2023/05/30 11:30:47;;;;;;;0.05;0.05;;;;;;;22.56;26.54;98103.19;5030697;28;20056;-73
2023/05/30 11:33:16;;;;;;;0.10;0.10;;;;;;;22.10;27.44;98101.94;5019560;28;20128;-73
2023/05/30 11:35:46;;;;;;;0.10;0.10;;;;;;;22.64;26.61;98097.25;5032026;28;20041;-73
2023/05/30 11:38:19;;;;;;;0.05;0.05;;;;;;;23.11;26.48;98093.84;5021186;28;20741;-73
2023/05/30 11:40:46;;;;;;;0.10;0.10;;;;;;;23.19;25.64;98101.50;5023591;28;20037;-73
2023/05/30 11:43:15;;;;;;;0.10;0.10;;;;;;;23.31;25.47;98102.13;5025308;28;20489;-73
2023/05/30 11:45:44;;;;;;;0.10;0.10;;;;;;;23.05;25.22;98091.06;5030084;28;20052;-73